To NAV CANADA Home Page Login to a new session Search on AWWS site Disclaimer Vers la page française équivalente Tips FAQ What's new on the site To the Forecasts and Observations / NOTAM section To "File a Flight Plan" website Publications and other links Update of the User's profile FIC Telephone Numbers My Weather Data Folder Route Weather Data Regional Weather Data Local Weather Data To the Forecasts and Observations / NOTAM section
Request Generated 11/13/2018 at 18:04:48 UTC . Weather information available at that time is displayed.

METAR/TAF

AKLAVIK/FREDDIE CARMICHAEL/NT    

METAR CYKD 131800Z 33008KT 15SM FEW014 BKN120 M21/M23 A3036 RMK SC1AC6 SLP282=
SPECI CYKD 131740Z 33008G15KT 15SM SCT014 BKN120 M21/M23 A3036 RMK SC3AC4 SLP282=
SPECI CYKD 131718Z 33010G16KT 15SM BKN014 OVC100 M21/M23 A3036 RMK SC6AC2 OCNL DRSN SLP284=
METAR CYKD 131700Z 33010KT 15SM IC SCT014 OVC110 M20/M23 A3036 RMK SC3AC5 OCNL DRSN SLP285=
METAR CYKD 131600Z 33012G18KT 15SM IC DRSN BKN027 OVC100 M20/M23 A3037 RMK SC7AC1 SLP286=

CYKD - No TAF is issued for this station

Your time UTC time
Weather data provided by Environment Canada and NAV CANADA